createdAt,value
2023-05-13T00:01:24.448Z,7.03
2023-05-13T00:03:53.753Z,5.60
2023-05-13T00:06:24.209Z,6.10
2023-05-13T00:08:53.384Z,5.82
2023-05-13T00:11:22.184Z,5.38
2023-05-13T00:13:51.098Z,6.38
2023-05-13T00:16:20.545Z,4.40
2023-05-13T00:18:49.908Z,4.53
2023-05-13T00:21:19.034Z,4.65
2023-05-13T00:23:49.713Z,5.18
2023-05-13T00:26:18.873Z,5.05
2023-05-13T00:28:50.812Z,5.30
2023-05-13T00:31:19.892Z,5.40
2023-05-13T00:33:49.156Z,5.45
2023-05-13T00:36:18.608Z,5.75
2023-05-13T00:38:49.187Z,5.57
2023-05-13T00:41:19.800Z,7.15
2023-05-13T00:43:48.874Z,7.63
2023-05-13T00:46:18.430Z,6.45
2023-05-13T00:48:47.671Z,7.03
2023-05-13T00:51:16.925Z,6.97
2023-05-13T00:53:47.533Z,7.22
2023-05-13T00:56:22.077Z,7.60
2023-05-13T00:58:51.392Z,6.55
2023-05-13T01:01:30.109Z,6.03
2023-05-13T01:04:09.849Z,7.22
2023-05-13T01:06:47.110Z,6.65
2023-05-13T01:09:23.260Z,6.28
2023-05-13T01:11:57.012Z,6.57
2023-05-13T01:14:30.640Z,6.70
2023-05-13T01:17:06.304Z,6.28
2023-05-13T01:19:43.193Z,6.22
2023-05-13T01:22:14.344Z,6.03
2023-05-13T01:24:45.774Z,6.90
2023-05-13T01:27:15.460Z,5.82
2023-05-13T01:29:45.571Z,6.47
2023-05-13T01:32:17.903Z,6.13
2023-05-13T01:34:48.122Z,6.47
2023-05-13T01:37:18.841Z,6.53
2023-05-13T01:39:49.074Z,6.43
2023-05-13T01:42:18.562Z,6.05
2023-05-13T01:44:47.894Z,6.22
2023-05-13T01:47:17.130Z,6.13
2023-05-13T01:49:48.531Z,6.30
2023-05-13T01:52:19.028Z,5.85
2023-05-13T01:54:48.047Z,6.07
2023-05-13T01:57:19.671Z,6.10
2023-05-13T01:59:49.028Z,6.13
2023-05-13T02:07:31.394Z,5.88
2023-05-13T02:10:00.759Z,6.47
2023-05-13T02:12:30.177Z,7.00
2023-05-13T02:14:59.557Z,6.63
2023-05-13T02:17:28.786Z,6.63
2023-05-13T02:19:57.778Z,6.38
2023-05-13T02:22:28.922Z,6.78
2023-05-13T02:24:59.455Z,6.47
2023-05-13T02:27:28.310Z,6.20
2023-05-13T02:29:57.757Z,6.22
2023-05-13T02:32:26.870Z,6.47
2023-05-13T02:34:56.012Z,6.90
2023-05-13T02:37:27.875Z,6.97
2023-05-13T02:40:08.171Z,6.72
2023-05-13T02:42:37.391Z,6.32
2023-05-13T02:45:07.622Z,6.95
2023-05-13T02:47:40.122Z,6.82
2023-05-13T02:50:10.707Z,7.07
2023-05-13T02:52:40.600Z,7.35
2023-05-13T02:55:12.003Z,7.57
2023-05-13T02:57:41.149Z,7.30
2023-05-13T03:00:11.185Z,8.85
2023-05-13T03:02:40.533Z,8.07
2023-05-13T03:05:10.451Z,8.43
2023-05-13T03:07:39.500Z,10.00
2023-05-13T03:10:12.559Z,8.00
2023-05-13T03:12:43.427Z,9.45
2023-05-13T03:17:46.086Z,9.73
2023-05-13T03:20:15.195Z,9.45
2023-05-13T03:22:44.355Z,9.85
2023-05-13T03:25:15.337Z,8.70
2023-05-13T03:27:52.494Z,9.68
2023-05-13T03:30:23.945Z,9.75
2023-05-13T03:33:04.300Z,9.88
2023-05-13T03:35:33.602Z,9.85
2023-05-13T03:38:03.016Z,9.55
2023-05-13T03:40:34.067Z,9.90
2023-05-13T03:43:03.420Z,9.80
2023-05-13T03:45:33.387Z,10.57
2023-05-13T03:48:08.098Z,9.10
2023-05-13T03:50:37.312Z,9.95
2023-05-13T03:53:07.176Z,9.90
2023-05-13T03:55:40.167Z,9.43
2023-05-13T03:58:13.371Z,9.90
2023-05-13T04:03:14.282Z,10.95
2023-05-13T04:05:44.256Z,10.40
2023-05-13T04:08:16.995Z,10.10
2023-05-13T04:10:47.251Z,11.75
2023-05-13T04:13:16.650Z,11.38
2023-05-13T04:15:47.733Z,13.35
2023-05-13T04:18:16.740Z,12.52
2023-05-13T04:20:46.240Z,12.15
2023-05-13T04:23:19.453Z,13.10
2023-05-13T04:25:53.705Z,12.65
2023-05-13T04:28:23.184Z,13.18
2023-05-13T04:30:54.466Z,13.18
2023-05-13T04:33:23.905Z,13.95
2023-05-13T04:35:52.990Z,13.63
2023-05-13T04:38:21.982Z,12.88
2023-05-13T04:40:53.627Z,15.13
2023-05-13T04:43:30.719Z,13.80
2023-05-13T04:46:01.330Z,13.35
2023-05-13T04:48:30.565Z,13.23
2023-05-13T04:51:00.665Z,12.90
2023-05-13T04:53:31.370Z,14.50
2023-05-13T04:56:05.558Z,14.00
2023-05-13T04:58:34.686Z,13.32
2023-05-13T05:01:06.584Z,11.82
2023-05-13T05:03:35.744Z,12.52
2023-05-13T05:06:05.163Z,11.90
2023-05-13T05:08:34.222Z,13.10
2023-05-13T05:11:04.354Z,12.38
2023-05-13T05:13:35.299Z,12.07
2023-05-13T05:16:09.642Z,12.50
2023-05-13T05:18:41.299Z,13.32
2023-05-13T05:21:10.368Z,11.48
2023-05-13T05:23:42.426Z,11.18
2023-05-13T05:26:12.848Z,11.63
2023-05-13T05:31:14.690Z,10.77
2023-05-13T05:33:43.535Z,9.18
2023-05-13T05:36:14.577Z,10.80
2023-05-13T05:38:43.266Z,10.95
2023-05-13T05:41:14.540Z,10.35
2023-05-13T05:43:43.377Z,10.60
2023-05-13T05:46:12.166Z,10.13
2023-05-13T05:48:41.016Z,10.63
2023-05-13T05:51:10.395Z,9.73
2023-05-13T05:53:41.113Z,10.55
2023-05-13T05:58:44.221Z,10.35
2023-05-13T06:01:15.733Z,9.30
2023-05-13T06:03:45.984Z,9.98
2023-05-13T06:06:14.912Z,10.63
2023-05-13T06:08:43.649Z,9.90
2023-05-13T06:11:13.752Z,10.45
2023-05-13T06:13:45.157Z,10.23
2023-05-13T06:16:13.950Z,11.20
2023-05-13T06:18:43.251Z,10.77
2023-05-13T06:21:12.064Z,10.30
2023-05-13T06:23:42.272Z,9.50
2023-05-13T06:26:11.058Z,9.77
2023-05-13T06:28:41.172Z,9.20
2023-05-13T06:31:09.998Z,10.38
2023-05-13T06:33:39.245Z,9.45
2023-05-13T06:36:09.423Z,9.38
2023-05-13T06:38:40.689Z,9.68
2023-05-13T06:41:09.768Z,9.38
2023-05-13T06:43:41.450Z,10.10
2023-05-13T06:46:36.598Z,9.43
2023-05-13T06:49:05.418Z,8.90
2023-05-13T06:51:36.651Z,8.98
2023-05-13T06:54:05.534Z,10.73
2023-05-13T06:56:35.477Z,9.00
2023-05-13T06:59:08.510Z,9.52
2023-05-13T07:01:37.384Z,8.75
2023-05-13T07:04:09.008Z,7.45
2023-05-13T07:06:40.351Z,7.15
2023-05-13T07:09:09.837Z,6.80
2023-05-13T07:11:39.122Z,6.90
2023-05-13T07:14:09.595Z,6.85
2023-05-13T07:16:38.514Z,7.38
2023-05-13T07:19:12.334Z,7.05
2023-05-13T07:21:41.380Z,6.53
2023-05-13T07:24:10.220Z,6.57
2023-05-13T07:26:39.835Z,6.53
2023-05-13T07:29:10.070Z,7.22
2023-05-13T07:31:41.352Z,6.65
2023-05-13T07:34:10.185Z,5.68
2023-05-13T07:36:39.078Z,5.57
2023-05-13T07:39:08.788Z,6.32
2023-05-13T07:41:38.097Z,6.10
2023-05-13T07:44:11.745Z,6.38
2023-05-13T07:46:44.533Z,7.00
2023-05-13T07:49:13.523Z,5.40
2023-05-13T07:51:42.479Z,5.80
2023-05-13T07:54:11.590Z,5.70
2023-05-13T07:56:40.473Z,6.38
2023-05-13T07:59:09.464Z,6.55
2023-05-13T08:01:38.583Z,4.57
2023-05-13T08:04:08.958Z,5.30
2023-05-13T08:06:38.074Z,5.55
2023-05-13T08:09:09.501Z,5.65
2023-05-13T08:11:38.168Z,6.28
2023-05-13T08:14:07.340Z,4.97
2023-05-13T08:16:37.052Z,5.25
2023-05-13T08:19:06.055Z,5.65
2023-05-13T08:21:36.174Z,6.15
2023-05-13T08:24:07.893Z,5.00
2023-05-13T08:26:36.842Z,5.30
2023-05-13T08:29:05.948Z,5.43
2023-05-13T08:31:34.804Z,6.38
2023-05-13T08:34:03.870Z,5.53
2023-05-13T08:36:32.744Z,4.68
2023-05-13T08:39:03.084Z,5.57
2023-05-13T08:41:32.304Z,5.75
2023-05-13T08:44:01.849Z,4.85
2023-05-13T08:46:33.757Z,4.70
2023-05-13T08:49:02.833Z,5.17
2023-05-13T08:51:32.221Z,5.00
2023-05-13T08:54:02.634Z,5.28
2023-05-13T08:56:31.484Z,5.05
2023-05-13T08:59:00.382Z,5.70
2023-05-13T09:01:31.172Z,4.90
2023-05-13T09:04:06.443Z,5.88
2023-05-13T09:06:37.784Z,4.35
2023-05-13T09:09:09.754Z,4.53
2023-05-13T09:11:41.037Z,6.13
2023-05-13T09:14:12.839Z,5.05
2023-05-13T09:16:43.569Z,4.78
2023-05-13T09:19:13.785Z,4.57
2023-05-13T09:21:45.368Z,5.13
2023-05-13T09:24:18.927Z,4.63
2023-05-13T09:26:48.522Z,5.05
2023-05-13T09:29:23.240Z,5.30
2023-05-13T09:31:53.919Z,5.00
2023-05-13T09:34:30.842Z,5.15
2023-05-13T09:37:01.619Z,4.68
2023-05-13T09:39:33.991Z,5.53
2023-05-13T09:42:05.344Z,5.15
2023-05-13T09:44:37.029Z,4.80
2023-05-13T09:47:06.136Z,5.18
2023-05-13T09:49:37.504Z,5.85
2023-05-13T09:52:10.168Z,4.65
2023-05-13T09:54:40.457Z,4.50
2023-05-13T09:57:14.055Z,3.90
2023-05-13T09:59:42.865Z,5.75
2023-05-13T10:02:16.629Z,5.55
2023-05-13T10:04:45.865Z,4.82
2023-05-13T10:07:15.450Z,5.00
2023-05-13T10:09:47.201Z,5.05
2023-05-13T10:12:16.630Z,4.60
2023-05-13T10:14:45.549Z,5.43
2023-05-13T10:17:15.581Z,4.75
2023-05-13T10:19:44.938Z,4.25
2023-05-13T10:22:15.444Z,4.00
2023-05-13T10:24:45.930Z,4.53
2023-05-13T10:27:15.321Z,4.55
2023-05-13T10:29:45.607Z,4.25
2023-05-13T10:32:17.116Z,4.07
2023-05-13T10:34:47.730Z,5.78
2023-05-13T10:37:40.881Z,4.55
2023-05-13T10:43:14.066Z,3.75
2023-05-13T10:45:47.318Z,3.78
2023-05-13T10:48:17.943Z,4.75
2023-05-13T10:50:55.396Z,4.57
2023-05-13T10:53:29.411Z,5.00
2023-05-13T10:56:01.254Z,4.17
2023-05-13T10:58:32.012Z,4.13
2023-05-13T11:01:17.695Z,3.97
2023-05-13T11:03:54.774Z,3.80
2023-05-13T11:06:31.196Z,3.55
2023-05-13T11:09:00.233Z,4.53
2023-05-13T11:11:34.203Z,4.13
2023-05-13T11:14:15.729Z,4.32
2023-05-13T11:17:41.847Z,4.07
2023-05-13T11:20:12.027Z,4.45
2023-05-13T11:25:14.244Z,4.07
2023-05-13T11:27:44.524Z,4.30
2023-05-13T11:30:24.502Z,4.35
2023-05-13T11:32:56.166Z,4.95
2023-05-13T11:35:28.771Z,4.60
2023-05-13T11:37:59.969Z,4.35
2023-05-13T11:40:32.906Z,3.70
2023-05-13T11:43:05.183Z,3.97
2023-05-13T11:45:34.567Z,4.75
2023-05-13T11:48:22.210Z,4.63
2023-05-13T11:50:52.040Z,3.63
2023-05-13T11:53:22.414Z,4.30
2023-05-13T11:55:51.807Z,5.15
2023-05-13T11:58:22.307Z,4.28
2023-05-13T12:00:51.987Z,4.72
2023-05-13T12:03:20.833Z,6.28
2023-05-13T12:05:51.373Z,5.03
2023-05-13T12:08:21.276Z,4.35
2023-05-13T12:10:53.569Z,4.78
2023-05-13T12:13:23.960Z,4.53
2023-05-13T12:15:53.552Z,4.75
2023-05-13T12:18:22.349Z,6.13
2023-05-13T12:20:51.710Z,5.43
2023-05-13T12:23:22.813Z,5.75
2023-05-13T12:25:51.948Z,6.07
2023-05-13T12:28:23.687Z,4.82
2023-05-13T12:30:54.805Z,4.90
2023-05-13T12:33:24.832Z,5.15
2023-05-13T12:35:55.353Z,4.93
2023-05-13T12:38:25.616Z,5.32
2023-05-13T12:40:55.117Z,5.47
2023-05-13T12:43:25.307Z,12.60
2023-05-13T12:45:55.736Z,8.45
2023-05-13T12:48:27.085Z,6.78
2023-05-13T12:51:00.113Z,5.70
2023-05-13T12:53:31.082Z,5.68
2023-05-13T12:56:00.127Z,4.80
2023-05-13T12:58:30.217Z,5.18
2023-05-13T13:01:01.294Z,5.40
2023-05-13T13:03:30.357Z,5.90
2023-05-13T13:05:59.191Z,5.78
2023-05-13T13:08:30.414Z,4.47
2023-05-13T13:11:00.716Z,5.45
2023-05-13T13:13:30.922Z,5.50
2023-05-13T13:15:59.982Z,5.47
2023-05-13T13:18:28.883Z,5.53
2023-05-13T13:20:57.683Z,5.65
2023-05-13T13:23:26.616Z,4.97
2023-05-13T13:25:55.426Z,5.75
2023-05-13T13:28:24.088Z,4.38
2023-05-13T13:30:54.218Z,5.13
2023-05-13T13:33:23.089Z,4.95
2023-05-13T13:35:51.906Z,4.65
2023-05-13T13:38:20.646Z,4.68
2023-05-13T13:40:52.406Z,5.13
2023-05-13T13:43:23.504Z,6.28
2023-05-13T13:45:52.384Z,5.75
2023-05-13T13:48:25.290Z,5.40
2023-05-13T13:50:59.667Z,6.45
2023-05-13T13:53:28.570Z,6.05
2023-05-13T13:55:57.461Z,5.60
2023-05-13T13:58:26.440Z,5.25
2023-05-13T14:00:57.523Z,5.70
2023-05-13T14:03:28.317Z,5.40
2023-05-13T14:05:57.237Z,5.10
2023-05-13T14:08:26.168Z,5.30
2023-05-13T14:10:54.993Z,6.07
2023-05-13T14:13:23.714Z,18.58
2023-05-13T14:15:52.408Z,6.15
2023-05-13T14:18:21.154Z,6.45
2023-05-13T14:20:51.425Z,5.28
2023-05-13T14:23:20.174Z,5.80
2023-05-13T14:25:49.075Z,5.38
2023-05-13T14:28:18.459Z,5.30
2023-05-13T14:30:47.246Z,5.70
2023-05-13T14:33:16.014Z,5.88
2023-05-13T14:35:44.796Z,5.50
2023-05-13T14:38:14.878Z,5.20
2023-05-13T14:40:43.706Z,4.30
2023-05-13T14:43:12.549Z,4.85
2023-05-13T14:46:12.672Z,5.07
2023-05-13T14:48:41.491Z,4.72
2023-05-13T14:51:12.375Z,4.82
2023-05-13T14:53:44.841Z,5.03
2023-05-13T14:56:13.699Z,4.93
2023-05-13T14:58:44.664Z,4.20
2023-05-13T15:01:13.467Z,5.55
2023-05-13T15:03:42.185Z,5.40
2023-05-13T15:06:11.142Z,4.75
2023-05-13T15:08:40.129Z,4.95
2023-05-13T15:11:10.393Z,4.35
2023-05-13T15:13:39.407Z,4.28
2023-05-13T15:16:08.645Z,4.68
2023-05-13T15:18:39.915Z,5.30
2023-05-13T15:21:08.612Z,5.07
2023-05-13T15:23:37.738Z,4.53
2023-05-13T15:26:06.478Z,4.25
2023-05-13T15:28:36.654Z,3.53
2023-05-13T15:31:05.724Z,4.18
2023-05-13T15:33:34.501Z,3.70
2023-05-13T15:36:03.394Z,3.72
2023-05-13T15:38:32.502Z,4.10
2023-05-13T15:41:03.497Z,4.00
2023-05-13T15:43:34.187Z,3.92
2023-05-13T15:46:04.664Z,3.97
2023-05-13T15:48:33.864Z,3.70
2023-05-13T15:51:03.783Z,3.42
2023-05-13T15:53:32.618Z,5.28
2023-05-13T15:56:01.373Z,3.83
2023-05-13T15:58:30.156Z,4.30
2023-05-13T16:00:59.583Z,4.10
2023-05-13T16:03:29.751Z,4.15
2023-05-13T16:05:58.509Z,4.30
2023-05-13T16:08:27.287Z,4.68
2023-05-13T16:10:56.023Z,4.07
2023-05-13T16:13:25.027Z,3.78
2023-05-13T16:15:54.190Z,5.00
2023-05-13T16:18:25.153Z,5.18
2023-05-13T16:20:55.488Z,5.05
2023-05-13T16:23:24.460Z,5.65
2023-05-13T16:25:53.220Z,6.03
2023-05-13T16:28:21.887Z,4.53
2023-05-13T16:30:51.382Z,4.88
2023-05-13T16:33:20.258Z,3.75
2023-05-13T16:35:51.319Z,4.07
2023-05-13T16:38:21.344Z,4.53
2023-05-13T16:40:50.431Z,4.88
2023-05-13T16:43:22.323Z,3.92
2023-05-13T16:45:51.765Z,4.10
2023-05-13T16:48:21.413Z,4.70
2023-05-13T16:50:51.358Z,4.75
2023-05-13T16:53:23.336Z,4.80
2023-05-13T16:55:52.496Z,4.10
2023-05-13T16:58:24.308Z,4.50
2023-05-13T17:00:53.469Z,4.32
2023-05-13T17:03:22.518Z,4.68
2023-05-13T17:05:51.401Z,5.43
2023-05-13T17:08:21.401Z,4.97
2023-05-13T17:10:51.532Z,5.95
2023-05-13T17:13:22.851Z,4.80
2023-05-13T17:15:53.859Z,4.82
2023-05-13T17:18:22.667Z,4.00
2023-05-13T17:20:51.461Z,4.80
2023-05-13T17:23:22.431Z,5.72
2023-05-13T17:25:52.645Z,4.22
2023-05-13T17:28:21.434Z,4.43
2023-05-13T17:30:52.550Z,5.95
2023-05-13T17:33:21.787Z,7.05
2023-05-13T17:35:50.792Z,4.90
2023-05-13T17:38:19.513Z,6.78
2023-05-13T17:40:48.433Z,5.68
2023-05-13T17:43:19.055Z,5.75
2023-05-13T17:45:48.025Z,6.15
2023-05-13T17:48:16.920Z,6.68
2023-05-13T17:50:48.112Z,7.07
2023-05-13T17:53:16.841Z,7.20
2023-05-13T17:55:48.931Z,6.38
2023-05-13T17:58:19.060Z,5.95
2023-05-13T18:00:48.294Z,6.88
2023-05-13T18:03:17.480Z,7.53
2023-05-13T18:05:46.306Z,7.28
2023-05-13T18:08:15.120Z,6.72
2023-05-13T18:10:44.042Z,6.93
2023-05-13T18:13:12.858Z,6.90
2023-05-13T18:15:43.241Z,7.18
2023-05-13T18:18:12.102Z,7.22
2023-05-13T18:20:42.126Z,6.45
2023-05-13T18:23:10.908Z,6.28
2023-05-13T18:25:48.815Z,6.45
2023-05-13T18:28:24.265Z,6.28
2023-05-13T18:30:54.495Z,6.25
2023-05-13T18:33:23.280Z,7.68
2023-05-13T18:35:53.249Z,7.57
2023-05-13T18:38:22.008Z,6.43
2023-05-13T18:40:50.850Z,6.95
2023-05-13T18:43:19.563Z,7.47
2023-05-13T18:45:48.361Z,6.00
2023-05-13T18:48:18.591Z,7.25
2023-05-13T18:50:47.382Z,7.05
2023-05-13T18:53:16.123Z,7.40
2023-05-13T18:55:44.863Z,7.60
2023-05-13T18:58:13.568Z,7.63
2023-05-13T19:00:42.539Z,7.95
2023-05-13T19:03:11.459Z,7.10
2023-05-13T19:05:41.753Z,7.65
2023-05-13T19:08:10.512Z,8.20
2023-05-13T19:10:40.435Z,7.63
2023-05-13T19:13:09.497Z,8.15
2023-05-13T19:15:38.402Z,8.00
2023-05-13T19:18:07.317Z,7.97
2023-05-13T19:20:36.230Z,7.25
2023-05-13T19:23:06.419Z,8.00
2023-05-13T19:25:42.112Z,7.50
2023-05-13T19:28:13.360Z,8.15
2023-05-13T19:30:42.880Z,7.85
2023-05-13T19:33:11.734Z,7.82
2023-05-13T19:35:44.592Z,8.10
2023-05-13T19:38:16.789Z,8.30
2023-05-13T19:40:46.085Z,7.65
2023-05-13T19:43:15.315Z,8.43
2023-05-13T19:45:44.052Z,8.77
2023-05-13T19:48:13.997Z,8.80
2023-05-13T19:50:42.776Z,9.43
2023-05-13T19:53:11.518Z,9.05
2023-05-13T19:55:41.737Z,9.05
2023-05-13T19:58:10.473Z,8.93
2023-05-13T20:00:39.323Z,9.02
2023-05-13T20:03:08.394Z,9.15
2023-05-13T20:05:37.272Z,10.18
2023-05-13T20:08:06.432Z,8.20
2023-05-13T20:10:36.783Z,9.70
2023-05-13T20:13:07.993Z,10.55
2023-05-13T20:15:36.986Z,10.15
2023-05-13T20:18:06.090Z,11.02
2023-05-13T20:20:35.524Z,11.05
2023-05-13T20:23:04.338Z,11.23
2023-05-13T20:25:33.091Z,9.73
2023-05-13T20:28:04.125Z,10.38
2023-05-13T20:30:35.652Z,9.73
2023-05-13T20:33:09.103Z,10.15
2023-05-13T20:35:38.350Z,10.15
2023-05-13T20:38:07.305Z,9.68
2023-05-13T20:40:36.280Z,9.82
2023-05-13T20:43:07.521Z,11.02
2023-05-13T20:45:39.756Z,10.93
2023-05-13T20:48:11.049Z,10.88
2023-05-13T20:50:39.783Z,10.25
2023-05-13T20:53:11.362Z,10.85
2023-05-13T20:55:42.316Z,11.73
2023-05-13T20:58:12.166Z,11.95
2023-05-13T21:00:42.383Z,11.93
2023-05-13T21:03:11.595Z,12.20
2023-05-13T21:05:40.556Z,13.50
2023-05-13T21:08:09.357Z,14.25
2023-05-13T21:10:38.293Z,12.82
2023-05-13T21:13:07.253Z,13.45
2023-05-13T21:15:38.503Z,13.43
2023-05-13T21:18:08.869Z,12.00
2023-05-13T21:20:37.703Z,13.95
2023-05-13T21:23:06.487Z,13.07
2023-05-13T21:25:35.284Z,12.45
2023-05-13T21:28:05.615Z,13.45
2023-05-13T21:30:34.368Z,14.13
2023-05-13T21:33:03.247Z,14.10
2023-05-13T21:35:33.406Z,15.65
2023-05-13T21:38:12.112Z,14.57
2023-05-13T21:40:44.502Z,14.48
2023-05-13T21:43:13.505Z,14.77
2023-05-13T21:45:42.392Z,15.82
2023-05-13T21:48:11.359Z,16.63
2023-05-13T21:50:41.791Z,17.65
2023-05-13T21:53:11.817Z,15.90
2023-05-13T21:55:40.888Z,17.55
2023-05-13T21:58:09.656Z,17.63
2023-05-13T22:00:38.383Z,17.52
2023-05-13T22:03:07.473Z,17.98
2023-05-13T22:05:42.298Z,16.75
2023-05-13T22:08:14.911Z,16.80
2023-05-13T22:10:43.846Z,19.23
2023-05-13T22:13:12.669Z,17.85
2023-05-13T22:15:41.820Z,18.50
2023-05-13T22:18:10.811Z,18.08
2023-05-13T22:20:39.556Z,18.75
2023-05-13T22:23:08.790Z,17.63
2023-05-13T22:25:39.163Z,16.15
2023-05-13T22:28:12.275Z,15.80
2023-05-13T22:33:09.672Z,16.33
2023-05-13T22:35:39.588Z,17.38
2023-05-13T22:38:08.662Z,16.85
2023-05-13T22:40:39.217Z,16.77
2023-05-13T22:43:08.093Z,15.63
2023-05-13T22:45:38.146Z,17.38
2023-05-13T22:48:08.206Z,16.30
2023-05-13T22:50:37.038Z,16.77
2023-05-13T22:53:05.848Z,16.58
2023-05-13T22:55:34.764Z,17.13
2023-05-13T22:58:05.217Z,16.48
2023-05-13T23:00:34.082Z,16.73
2023-05-13T23:03:02.969Z,15.80
2023-05-13T23:05:31.902Z,15.25
2023-05-13T23:08:00.758Z,16.75
2023-05-13T23:10:30.047Z,17.05
2023-05-13T23:12:58.964Z,14.85
2023-05-13T23:15:29.126Z,16.08
2023-05-13T23:17:58.191Z,17.45
2023-05-13T23:20:29.194Z,16.10
2023-05-13T23:22:58.107Z,16.17
2023-05-13T23:25:29.409Z,16.27
2023-05-13T23:27:58.382Z,14.35
2023-05-13T23:30:28.467Z,16.08
2023-05-13T23:32:59.679Z,16.23
2023-05-13T23:35:28.692Z,15.43
2023-05-13T23:37:57.856Z,15.80
2023-05-13T23:40:26.794Z,13.50
2023-05-13T23:42:55.696Z,14.18
2023-05-13T23:45:24.586Z,14.35
2023-05-13T23:47:54.810Z,14.30
2023-05-13T23:50:24.289Z,15.10
2023-05-13T23:52:53.104Z,13.38
2023-05-13T23:55:22.243Z,13.63
2023-05-13T23:57:53.523Z,13.60
